sensor_id;sensor_type;location;lat;lon;timestamp;pressure;altitude;pressure_sealevel;temperature;humidity
46223;BME280;31943;51.410;7.564;2023-03-25T00:01:59;99047.13;;;9.88;67.31
46223;BME280;31943;51.410;7.564;2023-03-25T00:04:24;99041.06;;;9.86;67.26
46223;BME280;31943;51.410;7.564;2023-03-25T00:06:50;99042.78;;;9.87;67.12
46223;BME280;31943;51.410;7.564;2023-03-25T00:09:23;99047.13;;;9.90;67.05
46223;BME280;31943;51.410;7.564;2023-03-25T00:11:49;99044.56;;;9.81;66.77
46223;BME280;31943;51.410;7.564;2023-03-25T00:14:15;99046.34;;;9.69;66.89
46223;BME280;31943;51.410;7.564;2023-03-25T00:16:42;99040.25;;;9.75;67.20
46223;BME280;31943;51.410;7.564;2023-03-25T00:19:08;99047.22;;;9.76;67.13
46223;BME280;31943;51.410;7.564;2023-03-25T00:21:34;99043.72;;;9.76;67.19
46223;BME280;31943;51.410;7.564;2023-03-25T00:24:01;99033.28;;;9.76;67.02
46223;BME280;31943;51.410;7.564;2023-03-25T00:26:28;99038.50;;;9.79;66.75
46223;BME280;31943;51.410;7.564;2023-03-25T00:28:54;99029.84;;;9.74;66.85
46223;BME280;31943;51.410;7.564;2023-03-25T00:31:20;99031.56;;;9.75;66.42
46223;BME280;31943;51.410;7.564;2023-03-25T00:33:47;99032.44;;;9.74;66.62
46223;BME280;31943;51.410;7.564;2023-03-25T00:36:12;99042.00;;;9.73;66.41
46223;BME280;31943;51.410;7.564;2023-03-25T00:38:38;99042.84;;;9.72;66.74
46223;BME280;31943;51.410;7.564;2023-03-25T00:41:11;99045.47;;;9.75;66.24
46223;BME280;31943;51.410;7.564;2023-03-25T00:43:39;99035.06;;;9.70;65.87
46223;BME280;31943;51.410;7.564;2023-03-25T00:46:05;99034.22;;;9.67;65.90
46223;BME280;31943;51.410;7.564;2023-03-25T00:48:32;99035.13;;;9.64;66.16
46223;BME280;31943;51.410;7.564;2023-03-25T00:50:57;99034.22;;;9.65;66.01
46223;BME280;31943;51.410;7.564;2023-03-25T00:53:24;99030.75;;;9.63;66.14
46223;BME280;31943;51.410;7.564;2023-03-25T00:55:50;99038.56;;;9.65;65.70
46223;BME280;31943;51.410;7.564;2023-03-25T00:58:16;99032.50;;;9.63;65.96
46223;BME280;31943;51.410;7.564;2023-03-25T01:00:43;99027.31;;;9.63;65.60
46223;BME280;31943;51.410;7.564;2023-03-25T01:03:09;99023.81;;;9.64;65.60
46223;BME280;31943;51.410;7.564;2023-03-25T01:05:35;99027.28;;;9.66;65.68
46223;BME280;31943;51.410;7.564;2023-03-25T01:08:02;99035.94;;;9.68;65.93
46223;BME280;31943;51.410;7.564;2023-03-25T01:10:29;99019.44;;;9.69;65.53
46223;BME280;31943;51.410;7.564;2023-03-25T01:12:55;99033.34;;;9.71;65.49
46223;BME280;31943;51.410;7.564;2023-03-25T01:15:20;99028.97;;;9.72;65.82
46223;BME280;31943;51.410;7.564;2023-03-25T01:17:49;99027.22;;;9.74;65.45
46223;BME280;31943;51.410;7.564;2023-03-25T01:20:15;99024.63;;;9.74;65.50
46223;BME280;31943;51.410;7.564;2023-03-25T01:22:41;99026.38;;;9.75;65.50
46223;BME280;31943;51.410;7.564;2023-03-25T01:25:07;99016.81;;;9.74;65.31
46223;BME280;31943;51.410;7.564;2023-03-25T01:27:32;99015.94;;;9.75;65.55
46223;BME280;31943;51.410;7.564;2023-03-25T01:29:58;99025.47;;;9.77;65.42
46223;BME280;31943;51.410;7.564;2023-03-25T01:32:24;99027.25;;;9.70;65.17
46223;BME280;31943;51.410;7.564;2023-03-25T01:34:52;99027.25;;;9.70;65.59
46223;BME280;31943;51.410;7.564;2023-03-25T01:37:19;99013.34;;;9.73;65.24
46223;BME280;31943;51.410;7.564;2023-03-25T01:39:45;99018.56;;;9.73;65.05
46223;BME280;31943;51.410;7.564;2023-03-25T01:42:11;99015.94;;;9.75;65.37
46223;BME280;31943;51.410;7.564;2023-03-25T01:47:41;99018.56;;;9.70;65.32
46223;BME280;31943;51.410;7.564;2023-03-25T01:50:10;99015.09;;;9.71;65.09
46223;BME280;31943;51.410;7.564;2023-03-25T01:52:36;99011.59;;;9.74;65.21
46223;BME280;31943;51.410;7.564;2023-03-25T01:55:02;99011.59;;;9.78;65.33
46223;BME280;31943;51.410;7.564;2023-03-25T01:57:28;99008.97;;;9.77;64.84
46223;BME280;31943;51.410;7.564;2023-03-25T01:59:55;99015.06;;;9.77;64.79
46223;BME280;31943;51.410;7.564;2023-03-25T02:02:23;99014.25;;;9.70;64.71
46223;BME280;31943;51.410;7.564;2023-03-25T02:04:52;99009.03;;;9.69;64.94
46223;BME280;31943;51.410;7.564;2023-03-25T02:07:21;99002.97;;;9.67;64.65
46223;BME280;31943;51.410;7.564;2023-03-25T02:09:47;98997.75;;;9.65;64.12
46223;BME280;31943;51.410;7.564;2023-03-25T02:12:14;98995.16;;;9.65;64.41
46223;BME280;31943;51.410;7.564;2023-03-25T02:14:39;98989.13;;;9.59;64.06
46223;BME280;31943;51.410;7.564;2023-03-25T02:17:11;98996.94;;;9.54;63.58
46223;BME280;31943;51.410;7.564;2023-03-25T02:23:04;98995.25;;;9.53;63.42
46223;BME280;31943;51.410;7.564;2023-03-25T02:25:53;98991.75;;;9.54;63.67
46223;BME280;31943;51.410;7.564;2023-03-25T02:28:30;98995.25;;;9.55;63.87
46223;BME280;31943;51.410;7.564;2023-03-25T02:31:33;98990.84;;;9.60;63.87
46223;BME280;31943;51.410;7.564;2023-03-25T02:37:02;98989.13;;;9.57;63.45
46223;BME280;31943;51.410;7.564;2023-03-25T02:39:40;98986.53;;;9.57;63.26
46223;BME280;31943;51.410;7.564;2023-03-25T02:42:14;98996.09;;;9.57;63.65
46223;BME280;31943;51.410;7.564;2023-03-25T02:44:46;98997.81;;;9.59;63.16
46223;BME280;31943;51.410;7.564;2023-03-25T02:47:17;99009.97;;;9.57;63.17
46223;BME280;31943;51.410;7.564;2023-03-25T02:49:50;98997.81;;;9.59;62.98
46223;BME280;31943;51.410;7.564;2023-03-25T02:52:20;99001.31;;;9.55;63.15
46223;BME280;31943;51.410;7.564;2023-03-25T02:54:52;98997.84;;;9.53;63.00
46223;BME280;31943;51.410;7.564;2023-03-25T02:57:20;99000.41;;;9.56;63.37
46223;BME280;31943;51.410;7.564;2023-03-25T02:59:48;99000.44;;;9.53;63.44
46223;BME280;31943;51.410;7.564;2023-03-25T03:02:16;98997.00;;;9.51;63.40
46223;BME280;31943;51.410;7.564;2023-03-25T03:04:47;98993.53;;;9.49;63.81
46223;BME280;31943;51.410;7.564;2023-03-25T03:07:17;99004.00;;;9.43;64.15
46223;BME280;31943;51.410;7.564;2023-03-25T03:09:53;98991.81;;;9.45;64.41
46223;BME280;31943;51.410;7.564;2023-03-25T03:12:34;98986.63;;;9.45;64.48
46223;BME280;31943;51.410;7.564;2023-03-25T03:15:19;98997.03;;;9.42;64.54
46223;BME280;31943;51.410;7.564;2023-03-25T03:17:58;98991.84;;;9.37;64.23
46223;BME280;31943;51.410;7.564;2023-03-25T03:20:35;98997.06;;;9.36;64.36
46223;BME280;31943;51.410;7.564;2023-03-25T03:23:07;98998.78;;;9.38;64.32
46223;BME280;31943;51.410;7.564;2023-03-25T03:25:38;98998.78;;;9.38;63.85
46223;BME280;31943;51.410;7.564;2023-03-25T03:28:09;98992.72;;;9.35;63.62
46223;BME280;31943;51.410;7.564;2023-03-25T03:30:43;98986.66;;;9.34;63.85
46223;BME280;31943;51.410;7.564;2023-03-25T03:33:14;98994.47;;;9.34;63.62
46223;BME280;31943;51.410;7.564;2023-03-25T03:35:46;99000.53;;;9.36;63.67
46223;BME280;31943;51.410;7.564;2023-03-25T03:38:16;98997.06;;;9.34;63.71
46223;BME280;31943;51.410;7.564;2023-03-25T03:40:50;99000.53;;;9.35;63.09
46223;BME280;31943;51.410;7.564;2023-03-25T03:43:22;98992.75;;;9.30;63.65
46223;BME280;31943;51.410;7.564;2023-03-25T03:45:52;98986.66;;;9.33;63.13
46223;BME280;31943;51.410;7.564;2023-03-25T03:48:23;98977.97;;;9.37;63.18
46223;BME280;31943;51.410;7.564;2023-03-25T03:50:52;98994.44;;;9.39;63.51
46223;BME280;31943;51.410;7.564;2023-03-25T03:53:24;98990.13;;;9.36;63.12
46223;BME280;31943;51.410;7.564;2023-03-25T03:55:58;98997.06;;;9.36;63.07
46223;BME280;31943;51.410;7.564;2023-03-25T03:58:29;98997.97;;;9.33;63.59
46223;BME280;31943;51.410;7.564;2023-03-25T04:01:00;99003.13;;;9.36;63.84
46223;BME280;31943;51.410;7.564;2023-03-25T04:03:28;98992.75;;;9.33;63.81
46223;BME280;31943;51.410;7.564;2023-03-25T04:06:00;98995.34;;;9.28;64.26
46223;BME280;31943;51.410;7.564;2023-03-25T04:08:30;98997.97;;;9.27;64.48
46223;BME280;31943;51.410;7.564;2023-03-25T04:11:04;98991.03;;;9.27;64.62
46223;BME280;31943;51.410;7.564;2023-03-25T04:13:33;98995.41;;;9.25;64.31
46223;BME280;31943;51.410;7.564;2023-03-25T04:15:59;98998.88;;;9.21;64.51
46223;BME280;31943;51.410;7.564;2023-03-25T04:18:26;98991.03;;;9.23;64.25
46223;BME280;31943;51.410;7.564;2023-03-25T04:20:53;98990.19;;;9.21;64.43
46223;BME280;31943;51.410;7.564;2023-03-25T04:23:18;98985.88;;;9.20;64.49
46223;BME280;31943;51.410;7.564;2023-03-25T04:25:44;98988.47;;;9.18;64.75
46223;BME280;31943;51.410;7.564;2023-03-25T04:28:11;98985.88;;;9.17;64.77
46223;BME280;31943;51.410;7.564;2023-03-25T04:30:37;98987.63;;;9.18;64.44
46223;BME280;31943;51.410;7.564;2023-03-25T04:33:03;98989.38;;;9.14;64.03
46223;BME280;31943;51.410;7.564;2023-03-25T04:35:29;98998.06;;;9.12;64.30
46223;BME280;31943;51.410;7.564;2023-03-25T04:37:55;98991.13;;;9.06;63.68
46223;BME280;31943;51.410;7.564;2023-03-25T04:40:21;98989.41;;;9.09;63.92
46223;BME280;31943;51.410;7.564;2023-03-25T04:42:47;98999.78;;;9.16;63.70
46223;BME280;31943;51.410;7.564;2023-03-25T04:45:15;98993.72;;;9.14;63.57
46223;BME280;31943;51.410;7.564;2023-03-25T04:47:41;98996.28;;;9.21;63.51
46223;BME280;31943;51.410;7.564;2023-03-25T04:50:11;99003.22;;;9.18;63.40
46223;BME280;31943;51.410;7.564;2023-03-25T04:52:41;99005.84;;;9.13;63.56
46223;BME280;31943;51.410;7.564;2023-03-25T04:55:08;99005.88;;;9.12;63.74
46223;BME280;31943;51.410;7.564;2023-03-25T04:57:36;99000.63;;;9.13;63.78
46223;BME280;31943;51.410;7.564;2023-03-25T05:00:01;98999.81;;;9.09;64.40
46223;BME280;31943;51.410;7.564;2023-03-25T05:02:29;98991.09;;;9.09;64.18
46223;BME280;31943;51.410;7.564;2023-03-25T05:04:55;98988.50;;;9.12;64.72
46223;BME280;31943;51.410;7.564;2023-03-25T05:07:20;98988.47;;;9.15;64.72
46223;BME280;31943;51.410;7.564;2023-03-25T05:09:46;98997.19;;;9.09;64.51
46223;BME280;31943;51.410;7.564;2023-03-25T05:12:11;98990.25;;;9.05;64.81
46223;BME280;31943;51.410;7.564;2023-03-25T05:14:37;98985.91;;;9.09;64.68
46223;BME280;31943;51.410;7.564;2023-03-25T05:17:03;98991.09;;;9.12;64.79
46223;BME280;31943;51.410;7.564;2023-03-25T05:19:30;98978.09;;;9.12;64.78
46223;BME280;31943;51.410;7.564;2023-03-25T05:21:56;98972.00;;;9.15;64.94
46223;BME280;31943;51.410;7.564;2023-03-25T05:24:22;98978.09;;;9.14;64.57
46223;BME280;31943;51.410;7.564;2023-03-25T05:26:47;98981.56;;;9.14;64.63
46223;BME280;31943;51.410;7.564;2023-03-25T05:29:14;98984.13;;;9.17;64.33
46223;BME280;31943;51.410;7.564;2023-03-25T05:31:40;98981.56;;;9.14;64.56
46223;BME280;31943;51.410;7.564;2023-03-25T05:34:06;98987.63;;;9.15;64.58
46223;BME280;31943;51.410;7.564;2023-03-25T05:36:33;98978.91;;;9.19;64.50
46223;BME280;31943;51.410;7.564;2023-03-25T05:38:59;98986.72;;;9.17;64.38
46223;BME280;31943;51.410;7.564;2023-03-25T05:41:27;98991.94;;;9.20;64.37
46223;BME280;31943;51.410;7.564;2023-03-25T05:43:53;99000.59;;;9.25;64.11
46223;BME280;31943;51.410;7.564;2023-03-25T05:46:19;98993.66;;;9.24;64.47
46223;BME280;31943;51.410;7.564;2023-03-25T05:48:45;99005.84;;;9.13;65.14
46223;BME280;31943;51.410;7.564;2023-03-25T05:51:12;99013.69;;;9.02;65.57
46223;BME280;31943;51.410;7.564;2023-03-25T05:53:40;99017.16;;;9.03;65.69
46223;BME280;31943;51.410;7.564;2023-03-25T05:56:08;99019.78;;;8.98;66.40
46223;BME280;31943;51.410;7.564;2023-03-25T05:58:34;99015.44;;;9.00;66.67
46223;BME280;31943;51.410;7.564;2023-03-25T06:00:59;99013.69;;;9.01;66.84
46223;BME280;31943;51.410;7.564;2023-03-25T06:03:25;99017.16;;;9.06;66.86
46223;BME280;31943;51.410;7.564;2023-03-25T06:05:52;99011.06;;;9.10;66.66
46223;BME280;31943;51.410;7.564;2023-03-25T06:08:19;99015.41;;;9.09;66.98
46223;BME280;31943;51.410;7.564;2023-03-25T06:10:46;99011.94;;;9.09;66.97
46223;BME280;31943;51.410;7.564;2023-03-25T06:13:11;99012.81;;;9.08;66.69
46223;BME280;31943;51.410;7.564;2023-03-25T06:15:37;99006.72;;;9.09;66.93
46223;BME280;31943;51.410;7.564;2023-03-25T06:18:03;99011.94;;;9.09;66.75
46223;BME280;31943;51.410;7.564;2023-03-25T06:20:28;99019.72;;;9.17;66.43
46223;BME280;31943;51.410;7.564;2023-03-25T06:22:54;99014.50;;;9.18;66.61
46223;BME280;31943;51.410;7.564;2023-03-25T06:25:20;99016.25;;;9.19;66.38
46223;BME280;31943;51.410;7.564;2023-03-25T06:27:48;99021.44;;;9.19;66.25
46223;BME280;31943;51.410;7.564;2023-03-25T06:30:15;99023.16;;;9.23;66.49
46223;BME280;31943;51.410;7.564;2023-03-25T06:32:41;99024.03;;;9.22;66.22
46223;BME280;31943;51.410;7.564;2023-03-25T06:35:09;99019.72;;;9.20;66.45
46223;BME280;31943;51.410;7.564;2023-03-25T06:37:37;99011.91;;;9.18;66.68
46223;BME280;31943;51.410;7.564;2023-03-25T06:40:05;99018.84;;;9.18;66.64
46223;BME280;31943;51.410;7.564;2023-03-25T06:42:32;99013.63;;;9.24;66.34
46223;BME280;31943;51.410;7.564;2023-03-25T06:44:59;99010.97;;;9.33;65.94
46223;BME280;31943;51.410;7.564;2023-03-25T06:47:25;99021.34;;;9.36;66.19
46223;BME280;31943;51.410;7.564;2023-03-25T06:49:51;99017.94;;;9.31;65.70
46223;BME280;31943;51.410;7.564;2023-03-25T06:52:17;99029.19;;;9.27;66.22
46223;BME280;31943;51.410;7.564;2023-03-25T06:54:42;99023.13;;;9.26;66.30
46223;BME280;31943;51.410;7.564;2023-03-25T06:57:08;99030.97;;;9.20;66.38
46223;BME280;31943;51.410;7.564;2023-03-25T06:59:34;99037.03;;;9.25;66.65
46223;BME280;31943;51.410;7.564;2023-03-25T07:02:03;99028.38;;;9.23;66.73
46223;BME280;31943;51.410;7.564;2023-03-25T07:04:29;99037.91;;;9.24;66.34
46223;BME280;31943;51.410;7.564;2023-03-25T07:06:54;99030.94;;;9.28;66.28
46223;BME280;31943;51.410;7.564;2023-03-25T07:09:20;99024.88;;;9.24;66.44
46223;BME280;31943;51.410;7.564;2023-03-25T07:11:46;99043.06;;;9.29;66.29
46223;BME280;31943;51.410;7.564;2023-03-25T07:14:11;99044.03;;;9.16;67.14
46223;BME280;31943;51.410;7.564;2023-03-25T07:16:37;99038.84;;;9.09;67.48
46223;BME280;31943;51.410;7.564;2023-03-25T07:19:06;99041.44;;;9.05;68.09
46223;BME280;31943;51.410;7.564;2023-03-25T07:21:31;99052.75;;;8.98;68.32
46223;BME280;31943;51.410;7.564;2023-03-25T07:23:57;99057.09;;;8.91;68.69
46223;BME280;31943;51.410;7.564;2023-03-25T07:26:22;99063.16;;;8.91;69.07
46223;BME280;31943;51.410;7.564;2023-03-25T07:28:48;99061.41;;;8.94;69.33
46223;BME280;31943;51.410;7.564;2023-03-25T07:31:15;99064.03;;;8.92;69.42
46223;BME280;31943;51.410;7.564;2023-03-25T07:33:41;99062.31;;;8.88;69.46
46223;BME280;31943;51.410;7.564;2023-03-25T07:36:10;99059.69;;;8.89;69.51
46223;BME280;31943;51.410;7.564;2023-03-25T07:38:37;99070.09;;;9.00;69.56
46223;BME280;31943;51.410;7.564;2023-03-25T07:41:04;99057.06;;;8.99;69.65
46223;BME280;31943;51.410;7.564;2023-03-25T07:43:30;99064.88;;;9.00;69.27
46223;BME280;31943;51.410;7.564;2023-03-25T07:45:56;99059.66;;;8.99;69.03
46223;BME280;31943;51.410;7.564;2023-03-25T07:48:22;99066.59;;;9.03;68.89
46223;BME280;31943;51.410;7.564;2023-03-25T07:50:50;99061.41;;;8.95;68.95
46223;BME280;31943;51.410;7.564;2023-03-25T07:53:18;99069.22;;;9.00;68.58
46223;BME280;31943;51.410;7.564;2023-03-25T07:55:44;99059.66;;;9.03;68.41
46223;BME280;31943;51.410;7.564;2023-03-25T07:58:09;99063.94;;;9.18;68.26
46223;BME280;31943;51.410;7.564;2023-03-25T08:00:35;99058.72;;;9.24;68.21
46223;BME280;31943;51.410;7.564;2023-03-25T08:03:01;99057.81;;;9.38;67.89
46223;BME280;31943;51.410;7.564;2023-03-25T08:05:27;99061.25;;;9.49;67.52
46223;BME280;31943;51.410;7.564;2023-03-25T08:07:53;99054.25;;;9.54;67.25
46223;BME280;31943;51.410;7.564;2023-03-25T08:10:20;99061.25;;;9.49;66.80
46223;BME280;31943;51.410;7.564;2023-03-25T08:12:46;99062.94;;;9.53;66.82
46223;BME280;31943;51.410;7.564;2023-03-25T08:15:12;99061.16;;;9.61;66.70
46223;BME280;31943;51.410;7.564;2023-03-25T08:17:38;99070.69;;;9.64;66.20
46223;BME280;31943;51.410;7.564;2023-03-25T08:20:05;99067.22;;;9.60;66.09
46223;BME280;31943;51.410;7.564;2023-03-25T08:22:31;99071.59;;;9.58;65.83
46223;BME280;31943;51.410;7.564;2023-03-25T08:24:57;99071.59;;;9.58;65.58
46223;BME280;31943;51.410;7.564;2023-03-25T08:27:24;99074.19;;;9.64;65.19
46223;BME280;31943;51.410;7.564;2023-03-25T08:29:50;99072.44;;;9.66;64.36
46223;BME280;31943;51.410;7.564;2023-03-25T08:32:15;99080.28;;;9.57;63.82
46223;BME280;31943;51.410;7.564;2023-03-25T08:34:41;99086.38;;;9.50;63.95
46223;BME280;31943;51.410;7.564;2023-03-25T08:37:07;99080.31;;;9.51;63.59
46223;BME280;31943;51.410;7.564;2023-03-25T08:39:33;99074.25;;;9.49;64.23
46223;BME280;31943;51.410;7.564;2023-03-25T08:41:58;99085.56;;;9.45;63.46
46223;BME280;31943;51.410;7.564;2023-03-25T08:44:25;99092.47;;;9.44;63.82
46223;BME280;31943;51.410;7.564;2023-03-25T08:46:51;99093.41;;;9.37;63.41
46223;BME280;31943;51.410;7.564;2023-03-25T08:49:17;99087.34;;;9.34;63.63
46223;BME280;31943;51.410;7.564;2023-03-25T08:51:42;99082.09;;;9.41;63.33
46223;BME280;31943;51.410;7.564;2023-03-25T08:54:08;99079.44;;;9.55;63.23
46223;BME280;31943;51.410;7.564;2023-03-25T08:56:34;99083.72;;;9.64;62.70
46223;BME280;31943;51.410;7.564;2023-03-25T08:59:00;99069.75;;;9.77;62.67
46223;BME280;31943;51.410;7.564;2023-03-25T09:01:27;99074.81;;;10.03;62.52
46223;BME280;31943;51.410;7.564;2023-03-25T09:03:52;99079.91;;;10.19;62.25
46223;BME280;31943;51.410;7.564;2023-03-25T09:06:20;99078.16;;;10.24;61.41
46223;BME280;31943;51.410;7.564;2023-03-25T09:08:46;99079.06;;;10.18;61.23
46223;BME280;31943;51.410;7.564;2023-03-25T09:11:12;99086.06;;;10.10;61.68
46223;BME280;31943;51.410;7.564;2023-03-25T09:13:37;99063.50;;;10.04;61.33
46223;BME280;31943;51.410;7.564;2023-03-25T09:16:04;99071.34;;;10.06;61.24
46223;BME280;31943;51.410;7.564;2023-03-25T09:18:32;99057.41;;;10.12;61.34
46223;BME280;31943;51.410;7.564;2023-03-25T09:20:58;99066.91;;;10.16;61.59
46223;BME280;31943;51.410;7.564;2023-03-25T09:23:24;99066.03;;;10.20;61.27
46223;BME280;31943;51.410;7.564;2023-03-25T09:25:49;99074.75;;;10.16;60.74
46223;BME280;31943;51.410;7.564;2023-03-25T09:28:15;99066.03;;;10.17;61.20
46223;BME280;31943;51.410;7.564;2023-03-25T09:30:41;99064.22;;;10.28;60.89
46223;BME280;31943;51.410;7.564;2023-03-25T09:33:07;99065.03;;;10.36;60.87
46223;BME280;31943;51.410;7.564;2023-03-25T09:35:34;99062.31;;;10.53;60.74
46223;BME280;31943;51.410;7.564;2023-03-25T09:38:00;99070.06;;;10.58;60.41
46223;BME280;31943;51.410;7.564;2023-03-25T09:40:25;99069.22;;;10.54;59.89
46223;BME280;31943;51.410;7.564;2023-03-25T09:43:00;99066.66;;;10.51;60.30
46223;BME280;31943;51.410;7.564;2023-03-25T09:45:33;99071.91;;;10.48;60.63
46223;BME280;31943;51.410;7.564;2023-03-25T09:48:02;99062.31;;;10.50;60.46
46223;BME280;31943;51.410;7.564;2023-03-25T09:50:29;99074.56;;;10.42;60.16
46223;BME280;31943;51.410;7.564;2023-03-25T09:53:00;99063.22;;;10.44;60.12
46223;BME280;31943;51.410;7.564;2023-03-25T09:55:32;99062.31;;;10.53;59.68
46223;BME280;31943;51.410;7.564;2023-03-25T09:58:03;99065.47;;;10.86;59.03
46223;BME280;31943;51.410;7.564;2023-03-25T10:00:34;99063.59;;;10.99;59.06
46223;BME280;31943;51.410;7.564;2023-03-25T10:03:07;99059.03;;;11.18;58.72
46223;BME280;31943;51.410;7.564;2023-03-25T10:06:08;99065.13;;;11.17;58.23
46223;BME280;31943;51.410;7.564;2023-03-25T10:08:47;99057.34;;;11.12;57.88
46223;BME280;31943;51.410;7.564;2023-03-25T10:11:22;99057.97;;;11.33;58.14
46223;BME280;31943;51.410;7.564;2023-03-25T10:13:54;99068.31;;;11.42;57.84
46223;BME280;31943;51.410;7.564;2023-03-25T10:16:30;99059.91;;;11.18;57.25
46223;BME280;31943;51.410;7.564;2023-03-25T10:19:14;99053.03;;;11.10;57.56
46223;BME280;31943;51.410;7.564;2023-03-25T10:21:46;99060.88;;;11.10;57.73
46223;BME280;31943;51.410;7.564;2023-03-25T10:24:19;99074.72;;;11.18;57.35
46223;BME280;31943;51.410;7.564;2023-03-25T10:26:47;99073.81;;;11.19;57.29
46223;BME280;31943;51.410;7.564;2023-03-25T10:29:18;99080.63;;;11.34;57.35
46223;BME280;31943;51.410;7.564;2023-03-25T10:31:49;99077.16;;;11.32;57.81
46223;BME280;31943;51.410;7.564;2023-03-25T10:34:17;99073.56;;;11.40;57.96
46223;BME280;31943;51.410;7.564;2023-03-25T10:36:46;99074.47;;;11.38;57.83
46223;BME280;31943;51.410;7.564;2023-03-25T10:39:15;99073.69;;;11.30;57.95
46223;BME280;31943;51.410;7.564;2023-03-25T10:41:45;99074.53;;;11.33;58.14
46223;BME280;31943;51.410;7.564;2023-03-25T10:44:12;99079.69;;;11.39;58.11
46223;BME280;31943;51.410;7.564;2023-03-25T10:46:39;99085.84;;;11.34;58.02
46223;BME280;31943;51.410;7.564;2023-03-25T10:49:08;99083.16;;;11.38;57.16
46223;BME280;31943;51.410;7.564;2023-03-25T10:51:35;99077.81;;;11.51;57.41
46223;BME280;31943;51.410;7.564;2023-03-25T10:54:02;99077.00;;;11.42;57.65
46223;BME280;31943;51.410;7.564;2023-03-25T10:56:29;99077.06;;;11.38;57.52
46223;BME280;31943;51.410;7.564;2023-03-25T10:59:02;99074.44;;;11.41;57.27
46223;BME280;31943;51.410;7.564;2023-03-25T11:01:34;99067.44;;;11.43;56.92
46223;BME280;31943;51.410;7.564;2023-03-25T11:04:02;99076.88;;;11.55;56.84
46223;BME280;31943;51.410;7.564;2023-03-25T11:06:31;99069.63;;;11.75;56.34
46223;BME280;31943;51.410;7.564;2023-03-25T11:09:11;99076.53;;;11.81;56.44
46223;BME280;31943;51.410;7.564;2023-03-25T11:11:37;99080.19;;;11.67;56.12
46223;BME280;31943;51.410;7.564;2023-03-25T11:14:05;99075.75;;;11.74;56.95
46223;BME280;31943;51.410;7.564;2023-03-25T11:16:32;99069.41;;;11.94;56.21
46223;BME280;31943;51.410;7.564;2023-03-25T11:18:59;99074.59;;;11.95;55.85
46223;BME280;31943;51.410;7.564;2023-03-25T11:21:29;99080.78;;;11.88;55.93
46223;BME280;31943;51.410;7.564;2023-03-25T11:23:57;99095.59;;;11.89;56.83
46223;BME280;31943;51.410;7.564;2023-03-25T11:26:27;99093.00;;;11.89;58.07
46223;BME280;31943;51.410;7.564;2023-03-25T11:28:54;99085.22;;;11.80;58.54
46223;BME280;31943;51.410;7.564;2023-03-25T11:31:22;99119.47;;;11.61;59.65
46223;BME280;31943;51.410;7.564;2023-03-25T11:34:03;99109.28;;;11.37;60.95
46223;BME280;31943;51.410;7.564;2023-03-25T11:36:30;99108.59;;;11.21;61.79
46223;BME280;31943;51.410;7.564;2023-03-25T11:38:58;99116.56;;;11.08;62.46
46223;BME280;31943;51.410;7.564;2023-03-25T11:41:28;99115.03;;;10.89;62.98
46223;BME280;31943;51.410;7.564;2023-03-25T11:43:54;99108.03;;;10.91;63.40
46223;BME280;31943;51.410;7.564;2023-03-25T11:46:22;99105.44;;;10.89;63.91
46223;BME280;31943;51.410;7.564;2023-03-25T11:48:48;99100.19;;;10.94;64.01
46223;BME280;31943;51.410;7.564;2023-03-25T11:51:18;99110.56;;;10.99;63.96
46223;BME280;31943;51.410;7.564;2023-03-25T11:53:46;99101.03;;;10.98;63.31
46223;BME280;31943;51.410;7.564;2023-03-25T11:56:16;99092.28;;;11.00;62.49
46223;BME280;31943;51.410;7.564;2023-03-25T11:58:45;99089.69;;;11.00;62.77
46223;BME280;31943;51.410;7.564;2023-03-25T12:01:22;99088.97;;;10.86;63.52
46223;BME280;31943;51.410;7.564;2023-03-25T12:03:50;99097.75;;;10.76;63.89
46223;BME280;31943;51.410;7.564;2023-03-25T12:06:17;99095.19;;;10.71;64.64
46223;BME280;31943;51.410;7.564;2023-03-25T12:08:48;99102.16;;;10.66;65.81
46223;BME280;31943;51.410;7.564;2023-03-25T12:11:17;99124.00;;;10.57;66.31
46223;BME280;31943;51.410;7.564;2023-03-25T12:13:53;99135.44;;;10.39;66.90
46223;BME280;31943;51.410;7.564;2023-03-25T12:16:32;99119.84;;;10.30;67.83
46223;BME280;31943;51.410;7.564;2023-03-25T12:19:10;99104.06;;;10.48;67.80
46223;BME280;31943;51.410;7.564;2023-03-25T12:21:53;99109.00;;;10.81;67.24
46223;BME280;31943;51.410;7.564;2023-03-25T12:24:29;99103.59;;;11.01;66.47
46223;BME280;31943;51.410;7.564;2023-03-25T12:27:11;99101.66;;;11.18;65.64
46223;BME280;31943;51.410;7.564;2023-03-25T12:29:45;99107.75;;;11.20;65.92
46223;BME280;31943;51.410;7.564;2023-03-25T12:32:26;99105.34;;;10.99;65.31
46223;BME280;31943;51.410;7.564;2023-03-25T12:35:05;99095.91;;;10.85;65.84
46223;BME280;31943;51.410;7.564;2023-03-25T12:37:49;99104.66;;;10.81;66.47
46223;BME280;31943;51.410;7.564;2023-03-25T12:40:40;99112.59;;;10.69;67.09
46223;BME280;31943;51.410;7.564;2023-03-25T12:43:11;99112.66;;;10.58;67.22
46223;BME280;31943;51.410;7.564;2023-03-25T12:45:48;99110.06;;;10.58;66.81
46223;BME280;31943;51.410;7.564;2023-03-25T12:48:30;99116.97;;;10.67;66.60
46223;BME280;31943;51.410;7.564;2023-03-25T12:51:06;99097.66;;;10.86;66.54
46223;BME280;31943;51.410;7.564;2023-03-25T12:53:47;99107.91;;;11.03;65.84
46223;BME280;31943;51.410;7.564;2023-03-25T12:56:39;99107.72;;;11.23;65.43
46223;BME280;31943;51.410;7.564;2023-03-25T12:59:28;99097.81;;;11.52;64.25
46223;BME280;31943;51.410;7.564;2023-03-25T13:02:07;99081.28;;;11.48;62.38
46223;BME280;31943;51.410;7.564;2023-03-25T13:04:58;99082.22;;;11.44;62.24
46223;BME280;31943;51.410;7.564;2023-03-25T13:07:27;99090.81;;;11.54;62.16
46223;BME280;31943;51.410;7.564;2023-03-25T13:10:00;99088.94;;;11.65;61.78
46223;BME280;31943;51.410;7.564;2023-03-25T13:12:30;99083.63;;;11.70;61.55
46223;BME280;31943;51.410;7.564;2023-03-25T13:15:03;99088.75;;;11.77;60.73
46223;BME280;31943;51.410;7.564;2023-03-25T13:17:33;99073.00;;;11.83;61.19
46223;BME280;31943;51.410;7.564;2023-03-25T13:20:04;99084.34;;;11.84;60.97
46223;BME280;31943;51.410;7.564;2023-03-25T13:22:33;99077.91;;;12.08;60.71
46223;BME280;31943;51.410;7.564;2023-03-25T13:25:01;99078.44;;;12.32;60.29
46223;BME280;31943;51.410;7.564;2023-03-25T13:27:32;99065.13;;;12.44;59.44